createdAt,value
2022-11-24T06:35:31.601Z,59.35
2022-11-24T06:47:15.351Z,60.25
2022-11-24T06:49:42.505Z,63.15
2022-11-24T06:52:09.953Z,59.17
2022-11-24T06:54:37.200Z,60.88
2022-11-24T06:57:04.586Z,53.78
2022-11-24T06:59:31.731Z,56.72
2022-11-24T07:01:58.838Z,54.20
2022-11-24T07:04:25.982Z,49.85
2022-11-24T07:06:53.185Z,55.92
2022-11-24T07:09:20.289Z,56.03
2022-11-24T07:11:47.426Z,50.80
2022-11-24T07:14:14.723Z,52.55
2022-11-24T07:16:42.270Z,54.42
2022-11-24T07:19:10.272Z,51.88
2022-11-24T07:21:37.437Z,53.85
2022-11-24T07:24:04.980Z,48.00
2022-11-24T07:26:37.095Z,50.83
2022-11-24T07:29:05.277Z,55.97
2022-11-24T07:31:32.448Z,50.53
2022-11-24T07:33:59.777Z,59.58
2022-11-24T07:36:26.938Z,58.85
2022-11-24T07:38:54.110Z,52.58
2022-11-24T07:41:21.471Z,56.15
2022-11-24T07:43:49.328Z,52.40
2022-11-24T07:46:18.851Z,52.25
2022-11-24T07:48:46.748Z,50.85
2022-11-24T07:51:13.970Z,55.55
2022-11-24T07:53:41.289Z,58.90
2022-11-24T07:56:09.263Z,53.38
2022-11-24T07:58:37.491Z,49.92
2022-11-24T08:01:18.207Z,48.67
2022-11-24T08:03:46.394Z,45.03
2022-11-24T08:06:38.172Z,49.78
2022-11-24T08:09:02.410Z,54.08
2022-11-24T08:11:31.453Z,53.65
2022-11-24T08:13:58.761Z,55.33
2022-11-24T08:16:26.049Z,52.65
2022-11-24T08:18:55.048Z,53.25
2022-11-24T08:21:25.783Z,61.47
2022-11-24T08:23:56.673Z,50.55
2022-11-24T08:26:24.886Z,56.03
2022-11-24T08:28:57.642Z,46.75
2022-11-24T08:31:27.170Z,49.20
2022-11-24T08:33:56.012Z,53.55
2022-11-24T08:36:23.222Z,50.10
2022-11-24T08:38:54.710Z,53.70
2022-11-24T08:41:22.139Z,50.00
2022-11-24T08:43:49.303Z,52.33
2022-11-24T08:46:17.392Z,51.15
2022-11-24T08:48:49.128Z,49.00
2022-11-24T08:51:18.867Z,47.10
2022-11-24T08:53:46.225Z,45.90
2022-11-24T08:56:13.517Z,41.13
2022-11-24T08:58:41.731Z,47.25
2022-11-24T09:01:14.091Z,42.83
2022-11-24T09:03:49.956Z,43.45
2022-11-24T09:06:25.102Z,43.80
2022-11-24T09:08:54.101Z,43.20
2022-11-24T09:11:21.449Z,44.63
2022-11-24T09:13:48.683Z,42.08
2022-11-24T09:16:18.733Z,50.72
2022-11-24T09:18:46.510Z,52.70
2022-11-24T09:21:15.951Z,56.17
2022-11-24T09:23:44.019Z,49.63
2022-11-24T09:26:16.844Z,47.28
2022-11-24T09:28:44.138Z,50.05
2022-11-24T09:31:14.114Z,43.65
2022-11-24T09:33:42.168Z,44.38
2022-11-24T09:36:09.570Z,49.85
2022-11-24T09:38:36.923Z,49.50
2022-11-24T09:41:22.182Z,51.47
2022-11-24T09:44:14.329Z,49.95
2022-11-24T09:46:50.308Z,50.85
2022-11-24T09:49:24.663Z,51.25
2022-11-24T09:51:52.467Z,51.55
2022-11-24T09:54:26.367Z,53.10
2022-11-24T09:56:53.588Z,53.13
2022-11-24T09:59:24.884Z,54.15
2022-11-24T10:01:52.680Z,58.70
2022-11-24T10:04:22.896Z,49.65
2022-11-24T10:07:12.007Z,52.60
2022-11-24T10:10:10.713Z,60.13
2022-11-24T10:12:52.690Z,53.10
2022-11-24T10:15:24.494Z,51.33
2022-11-24T10:18:17.061Z,48.97
2022-11-24T10:21:06.324Z,47.20
2022-11-24T10:24:00.597Z,46.03
2022-11-24T10:26:41.657Z,43.47
2022-11-24T10:29:36.855Z,41.95
2022-11-24T10:32:06.846Z,45.33
2022-11-24T10:35:13.444Z,38.90
2022-11-24T10:37:50.400Z,42.65
2022-11-24T10:40:56.507Z,39.50
2022-11-24T10:43:13.106Z,41.58
2022-11-24T10:45:40.595Z,41.17
2022-11-24T10:48:21.745Z,38.17
2022-11-24T10:50:48.899Z,40.08
2022-11-24T10:53:35.585Z,37.38
2022-11-24T10:56:05.018Z,42.90
2022-11-24T10:58:38.490Z,44.67
2022-11-24T11:01:14.883Z,39.28
2022-11-24T11:03:48.905Z,42.58
2022-11-24T11:06:23.000Z,44.15
2022-11-24T11:08:50.343Z,41.92
2022-11-24T11:11:39.112Z,49.45
2022-11-24T11:14:08.817Z,44.00
2022-11-24T11:16:35.989Z,45.35
2022-11-24T11:19:20.166Z,42.42
2022-11-24T11:22:01.072Z,42.10
2022-11-24T11:24:29.488Z,43.75
2022-11-24T11:27:02.534Z,38.35
2022-11-24T11:35:12.590Z,44.67
2022-11-24T11:37:40.869Z,37.97
2022-11-24T11:40:14.755Z,42.17
2022-11-24T11:43:01.913Z,44.45
2022-11-24T11:45:37.491Z,43.88
2022-11-24T11:48:10.109Z,44.75
2022-11-24T11:51:21.057Z,42.75
2022-11-24T11:53:47.071Z,46.13
2022-11-24T11:56:33.597Z,43.45
2022-11-24T11:59:25.328Z,46.63
2022-11-24T12:02:20.880Z,42.00
2022-11-24T12:04:59.630Z,39.57
2022-11-24T12:07:48.932Z,43.38
2022-11-24T12:10:41.748Z,37.65
2022-11-24T12:13:33.089Z,44.60
2022-11-24T12:16:31.008Z,41.42
2022-11-24T12:19:00.969Z,38.38
2022-11-24T12:21:43.060Z,43.88
2022-11-24T12:24:18.111Z,41.35
2022-11-24T12:26:50.484Z,38.53
2022-11-24T12:29:42.124Z,38.47
2022-11-24T13:15:43.555Z,35.88
2022-11-24T13:27:15.788Z,35.33
2022-11-24T13:29:44.023Z,35.17
2022-11-24T13:32:20.908Z,36.67
2022-11-24T13:34:54.810Z,46.28
2022-11-24T13:37:31.983Z,39.72
2022-11-24T13:40:23.124Z,40.25
2022-11-24T13:42:56.278Z,42.70
2022-11-24T13:45:41.705Z,37.58
2022-11-24T13:48:21.753Z,39.80
2022-11-24T13:50:54.658Z,36.13
2022-11-24T13:53:40.250Z,37.33
2022-11-24T13:56:13.082Z,40.92
2022-11-24T13:59:16.530Z,36.95
2022-11-24T14:01:46.715Z,38.22
2022-11-24T14:07:12.192Z,43.15
2022-11-24T14:09:45.789Z,38.15
2022-11-24T14:12:22.946Z,39.72
2022-11-24T14:14:51.696Z,36.97
2022-11-24T14:17:23.782Z,37.17
2022-11-24T14:19:53.433Z,40.03
2022-11-24T14:22:35.076Z,42.72
2022-11-24T14:25:02.809Z,40.75
2022-11-24T15:54:32.841Z,38.95
2022-11-24T18:58:19.089Z,46.38
2022-11-24T19:00:46.290Z,40.47
2022-11-24T19:03:13.608Z,43.92
2022-11-24T19:05:41.199Z,42.63
2022-11-24T19:08:08.386Z,41.50
2022-11-24T19:10:39.419Z,47.50
2022-11-24T19:13:06.631Z,44.33
2022-11-24T19:15:35.017Z,44.00
2022-11-24T19:18:02.404Z,42.83
2022-11-24T19:20:29.724Z,42.67
2022-11-24T19:27:53.620Z,45.83
2022-11-24T19:44:25.113Z,43.67
2022-11-24T19:55:42.849Z,41.78
2022-11-24T19:58:37.027Z,45.47
2022-11-24T20:02:02.634Z,39.55
2022-11-24T20:04:30.335Z,44.95
2022-11-24T20:08:00.810Z,39.92
2022-11-24T20:10:31.480Z,41.80
2022-11-24T20:14:27.557Z,45.22
2022-11-24T20:17:20.357Z,52.42
2022-11-24T20:19:47.579Z,47.22
2022-11-24T20:31:08.137Z,44.30
2022-11-24T20:50:27.272Z,50.42
2022-11-24T21:01:48.352Z,57.80
2022-11-24T21:09:30.642Z,57.85
2022-11-24T22:25:32.258Z,57.55
2022-11-24T23:04:24.943Z,45.03
2022-11-24T23:43:05.109Z,51.22
